Time;durP1;ratioP1;P1;durP2;ratioP2;P2;SDS_P1;SDS_P2;PMS_P1;PMS_P2;Temp;Humidity;BMP_temperature;BMP_pressure;BME280_temperature;BME280_humidity;BME280_pressure;Samples;Min_cycle;Max_cycle;Signal;HPM_P1;HPM_P2
2022/10/15 00:02:05;;;;;;;;;;;;;;;13.88;83.50;100376.91;4994732;28;20333;-74
2022/10/15 00:04:30;;;;;;;;;;;;;;;13.86;83.59;100374.34;5011510;28;19921;-75
2022/10/15 00:06:56;;;;;;;;;;;;;;;13.82;83.54;100361.47;5013492;28;20383;-74
2022/10/15 00:09:21;;;;;;;;;;;;;;;13.91;83.32;100363.72;5011718;28;20503;-75
2022/10/15 00:11:46;;;;;;;;;;;;;;;13.82;83.63;100359.69;5024366;28;19926;-74
2022/10/15 00:14:11;;;;;;;;;;;;;;;13.85;83.49;100362.19;5014846;28;20394;-75
2022/10/15 00:16:37;;;;;;;;;;;;;;;13.84;83.50;100357.88;5015493;28;19929;-75
2022/10/15 00:19:02;;;;;;;;;;;;;;;13.89;83.30;100357.69;5012273;28;19944;-75
2022/10/15 00:21:28;;;;;;;;;;;;;;;13.89;83.16;100355.94;5010554;28;20575;-75
2022/10/15 00:23:54;;;;;;;;;;;;;;;13.88;83.21;100350.78;5011341;28;20004;-74
2022/10/15 00:26:23;;;;;;;;;;;;;;;13.83;83.26;100352.72;5003158;28;19929;-75
2022/10/15 00:28:49;;;;;;;;;;;;;;;13.80;83.34;100360.66;5007423;28;19936;-75
2022/10/15 00:31:15;;;;;;;;;;;;;;;13.80;83.47;100355.44;5009611;28;20330;-74
2022/10/15 00:33:41;;;;;;;;;;;;;;;13.81;83.29;100349.31;5008884;28;20060;-75
2022/10/15 00:36:11;;;;;;;;;;;;;;;13.86;83.31;100342.16;5012053;28;20004;-75
2022/10/15 00:38:36;;;;;;;;;;;;;;;13.83;83.14;100345.75;5011065;28;20341;-75
2022/10/15 00:41:03;;;;;;;;;;;;;;;13.85;83.08;100343.09;5011747;28;20057;-75
2022/10/15 00:43:44;;;;;;;;;;;;;;;13.81;83.21;100334.50;5015267;28;19929;-75
2022/10/15 00:46:17;;;;;;;;;;;;;;;13.77;83.32;100344.22;5014450;28;19953;-75
2022/10/15 00:48:43;;;;;;;;;;;;;;;13.75;83.45;100337.38;5010290;28;20137;-74
2022/10/15 00:51:08;;;;;;;;;;;;;;;13.79;83.24;100335.50;5014119;28;21618;-74
2022/10/15 00:53:33;;;;;;;;;;;;;;;13.76;83.31;100332.06;5010098;28;19929;-74
2022/10/15 00:55:59;;;;;;;;;;;;;;;13.79;83.12;100325.88;5006290;28;19922;-75
2022/10/15 00:58:27;;;;;;;;;;;;;;;13.74;83.37;100326.06;5009787;28;20298;-74
2022/10/15 01:00:53;;;;;;;;;;;;;;;13.76;83.23;100339.06;5008871;28;19925;-75
2022/10/15 01:03:18;;;;;;;;;;;;;;;13.73;83.33;100339.19;5002193;28;19925;-75
2022/10/15 01:05:47;;;;;;;;;;;;;;;13.73;83.07;100342.66;5017968;28;19917;-75
2022/10/15 01:08:12;;;;;;;;;;;;;;;13.76;83.12;100354.72;5009082;28;19999;-74
2022/10/15 01:10:47;;;;;;;;;;;;;;;13.74;83.18;100344.34;5010274;28;19932;-75
2022/10/15 01:13:18;;;;;;;;;;;;;;;13.74;83.40;100339.13;5013304;28;19959;-75
2022/10/15 01:15:45;;;;;;;;;;;;;;;13.76;83.52;100341.66;5010054;28;19975;-75
2022/10/15 01:18:14;;;;;;;;;;;;;;;13.81;83.22;100337.13;5011518;28;19917;-75
2022/10/15 01:20:39;;;;;;;;;;;;;;;13.80;83.17;100334.56;5011504;28;19914;-74
2022/10/15 01:23:08;;;;;;;;;;;;;;;13.77;83.61;100339.00;5006200;28;19941;-75
2022/10/15 01:25:48;;;;;;;;;;;;;;;13.81;83.34;100339.75;5010307;28;20274;-74
2022/10/15 01:28:17;;;;;;;;;;;;;;;13.79;83.59;100331.09;5008727;28;19929;-74
2022/10/15 01:30:45;;;;;;;;;;;;;;;13.81;83.54;100339.75;5010883;28;20061;-75
2022/10/15 01:33:23;;;;;;;;;;;;;;;13.76;83.62;100339.91;5009113;28;19921;-75
2022/10/15 01:36:07;;;;;;;;;;;;;;;13.77;83.69;100341.63;5010224;28;19913;-74
2022/10/15 01:38:35;;;;;;;;;;;;;;;13.79;83.46;100336.31;5010065;28;19969;-75
2022/10/15 01:41:08;;;;;;;;;;;;;;;13.77;83.48;100344.22;5022456;28;19921;-75
2022/10/15 01:43:50;;;;;;;;;;;;;;;13.79;83.50;100351.97;5012898;28;19917;-74
2022/10/15 01:46:19;;;;;;;;;;;;;;;13.77;83.60;100349.44;5015625;28;19917;-75
2022/10/15 01:48:45;;;;;;;;;;;;;;;13.75;83.74;100342.59;5014566;28;19928;-75
2022/10/15 01:51:12;;;;;;;;;;;;;;;13.78;83.72;100347.69;5009141;28;19918;-75
2022/10/15 01:53:38;;;;;;;;;;;;;;;13.80;83.51;100347.63;5007069;28;19976;-75
2022/10/15 01:56:07;;;;;;;;;;;;;;;13.74;83.62;100338.28;5008988;28;19935;-75
2022/10/15 01:58:34;;;;;;;;;;;;;;;13.72;83.73;100343.56;5008293;28;19961;-75
2022/10/15 02:00:59;;;;;;;;;;;;;;;13.74;83.48;100335.66;5004804;28;19930;-74
2022/10/15 02:03:25;;;;;;;;;;;;;;;13.74;83.54;100335.66;4992989;28;19921;-75
2022/10/15 02:05:54;;;;;;;;;;;;;;;13.73;83.39;100331.34;5010021;28;19963;-75
2022/10/15 02:08:22;;;;;;;;;;;;;;;13.73;83.58;100329.59;5006433;28;20420;-75
2022/10/15 02:10:53;;;;;;;;;;;;;;;13.74;83.29;100326.06;5012593;28;19917;-75
2022/10/15 02:13:18;;;;;;;;;;;;;;;13.74;83.17;100323.47;5013921;28;20701;-74
2022/10/15 02:15:53;;;;;;;;;;;;;;;13.69;83.50;100328.03;4993772;28;20012;-75
2022/10/15 02:18:30;;;;;;;;;;;;;;;13.73;83.35;100326.13;5003685;28;19917;-74
2022/10/15 02:21:13;;;;;;;;;;;;;;;13.68;83.37;100323.72;5010586;28;20640;-74
2022/10/15 02:23:38;;;;;;;;;;;;;;;13.69;83.13;100325.44;5007607;28;19983;-74
2022/10/15 02:26:06;;;;;;;;;;;;;;;13.71;83.14;100334.03;5007342;28;20371;-75
2022/10/15 02:28:33;;;;;;;;;;;;;;;13.72;83.22;100337.50;5009104;28;20422;-75
2022/10/15 02:30:58;;;;;;;;;;;;;;;13.69;83.36;100335.88;5003512;28;20012;-75
2022/10/15 02:33:25;;;;;;;;;;;;;;;13.75;83.09;100332.16;5005218;28;20024;-75
2022/10/15 02:35:51;;;;;;;;;;;;;;;13.73;83.16;100332.19;5008712;28;19971;-74
2022/10/15 02:38:18;;;;;;;;;;;;;;;13.68;83.30;100331.56;5008267;28;19922;-74
2022/10/15 02:40:45;;;;;;;;;;;;;;;13.73;83.01;100331.34;5011892;28;20394;-74
2022/10/15 02:43:11;;;;;;;;;;;;;;;13.72;82.80;100329.66;5006489;28;19921;-74
2022/10/15 02:45:37;;;;;;;;;;;;;;;13.69;82.92;100327.19;5012219;28;19929;-74
2022/10/15 02:48:02;;;;;;;;;;;;;;;13.70;82.59;100334.94;5009752;28;20313;-74
2022/10/15 02:50:27;;;;;;;;;;;;;;;13.74;82.63;100331.31;5009259;28;19921;-74
2022/10/15 02:52:53;;;;;;;;;;;;;;;13.74;82.54;100327.84;5009186;28;19925;-75
2022/10/15 02:55:18;;;;;;;;;;;;;;;13.69;82.58;100324.56;5009971;28;20295;-75
2022/10/15 02:57:43;;;;;;;;;;;;;;;13.68;82.45;100330.69;5008859;28;19924;-74
2022/10/15 03:00:09;;;;;;;;;;;;;;;13.66;82.37;100333.34;5009314;28;20287;-75
2022/10/15 03:02:34;;;;;;;;;;;;;;;13.63;82.58;100335.22;5008287;28;19913;-75
2022/10/15 03:04:59;;;;;;;;;;;;;;;13.63;82.41;100328.25;5007826;28;19921;-74
2022/10/15 03:07:24;;;;;;;;;;;;;;;13.69;81.99;100329.78;5009377;28;19925;-75
2022/10/15 03:09:50;;;;;;;;;;;;;;;13.71;82.04;100339.25;5009241;28;20355;-75
2022/10/15 03:12:15;;;;;;;;;;;;;;;13.68;82.04;100333.31;5012324;28;20431;-74
2022/10/15 03:14:40;;;;;;;;;;;;;;;13.70;82.27;100334.94;5015755;28;19922;-74
2022/10/15 03:17:05;;;;;;;;;;;;;;;13.71;81.94;100333.19;5015775;28;19960;-75
2022/10/15 03:19:31;;;;;;;;;;;;;;;13.70;82.10;100326.28;5008598;28;19928;-75
2022/10/15 03:21:56;;;;;;;;;;;;;;;13.74;81.81;100322.63;5008463;28;19925;-75
2022/10/15 03:24:21;;;;;;;;;;;;;;;13.68;82.00;100320.25;5007512;28;19925;-75
2022/10/15 03:26:47;;;;;;;;;;;;;;;13.64;81.99;100322.09;5008495;28;19917;-74
2022/10/15 03:29:12;;;;;;;;;;;;;;;13.63;82.06;100328.25;5006829;28;19921;-74
2022/10/15 03:31:37;;;;;;;;;;;;;;;13.66;81.98;100322.06;5007591;28;19921;-75
2022/10/15 03:34:03;;;;;;;;;;;;;;;13.65;81.91;100333.41;5008664;28;20454;-75
2022/10/15 03:36:28;;;;;;;;;;;;;;;13.66;81.94;100337.72;5009378;28;19927;-75
2022/10/15 03:38:53;;;;;;;;;;;;;;;13.61;81.98;100331.84;5009590;28;19925;-74
2022/10/15 03:41:18;;;;;;;;;;;;;;;13.60;81.84;100340.56;5010664;28;19967;-74
2022/10/15 03:43:44;;;;;;;;;;;;;;;13.60;81.74;100336.22;5008429;28;20307;-74
2022/10/15 03:46:09;;;;;;;;;;;;;;;13.62;81.66;100330.91;5001363;28;19945;-74
2022/10/15 03:48:34;;;;;;;;;;;;;;;13.60;81.82;100328.38;5000416;28;20433;-75
2022/10/15 03:50:59;;;;;;;;;;;;;;;13.56;81.60;100328.53;5010891;28;20086;-75
2022/10/15 03:53:25;;;;;;;;;;;;;;;13.58;81.65;100334.56;5008485;28;19932;-75
2022/10/15 03:55:50;;;;;;;;;;;;;;;13.58;81.61;100332.78;5009189;28;20354;-74
2022/10/15 03:58:16;;;;;;;;;;;;;;;13.57;81.47;100338.09;5008284;28;20598;-74
2022/10/15 04:00:42;;;;;;;;;;;;;;;13.54;81.81;100339.06;5007422;28;19928;-75
2022/10/15 04:03:10;;;;;;;;;;;;;;;13.53;82.03;100339.97;5010899;28;19914;-75
2022/10/15 04:05:35;;;;;;;;;;;;;;;13.54;81.79;100346.88;5009077;28;20298;-75
2022/10/15 04:08:01;;;;;;;;;;;;;;;13.65;81.64;100338.63;5007197;28;20561;-74
2022/10/15 04:10:28;;;;;;;;;;;;;;;13.64;81.57;100337.75;5009924;28;19928;-74
2022/10/15 04:12:53;;;;;;;;;;;;;;;13.65;81.50;100347.31;5010745;28;19929;-74
2022/10/15 04:15:18;;;;;;;;;;;;;;;13.60;81.31;100341.44;5007949;28;19928;-75
2022/10/15 04:17:44;;;;;;;;;;;;;;;13.63;80.90;100341.31;5009608;28;19922;-75
2022/10/15 04:20:09;;;;;;;;;;;;;;;13.66;80.88;100325.53;5008697;28;20433;-75
2022/10/15 04:22:35;;;;;;;;;;;;;;;13.64;81.07;100329.94;5009176;28;20072;-75
2022/10/15 04:25:01;;;;;;;;;;;;;;;13.60;81.08;100328.38;5004531;28;20286;-74
2022/10/15 04:27:26;;;;;;;;;;;;;;;13.59;80.97;100321.44;5007777;28;19936;-74
2022/10/15 04:29:51;;;;;;;;;;;;;;;13.62;80.78;100307.41;5008951;28;19926;-74
2022/10/15 04:32:17;;;;;;;;;;;;;;;13.57;81.02;100305.00;5005948;28;19925;-74
2022/10/15 04:34:44;;;;;;;;;;;;;;;13.50;81.07;100303.53;5008758;28;19937;-75
2022/10/15 04:37:09;;;;;;;;;;;;;;;13.52;81.07;100304.31;5009651;28;19960;-74
2022/10/15 04:39:34;;;;;;;;;;;;;;;13.51;81.02;100307.00;5009014;28;19961;-75
2022/10/15 04:42:00;;;;;;;;;;;;;;;13.44;80.92;100311.63;5007552;28;19926;-75
2022/10/15 04:44:26;;;;;;;;;;;;;;;13.45;80.93;100315.94;5007682;28;19936;-74
2022/10/15 04:46:51;;;;;;;;;;;;;;;13.45;81.14;100321.16;5007784;28;19925;-75
2022/10/15 04:49:16;;;;;;;;;;;;;;;13.44;81.11;100332.50;5011637;28;19921;-75
2022/10/15 04:51:41;;;;;;;;;;;;;;;13.45;81.53;100331.59;5014156;28;19921;-75
2022/10/15 04:54:07;;;;;;;;;;;;;;;13.49;81.26;100332.31;5011926;28;20341;-75
2022/10/15 04:56:32;;;;;;;;;;;;;;;13.52;81.25;100333.03;5011082;28;19917;-75
2022/10/15 04:58:57;;;;;;;;;;;;;;;13.56;81.14;100336.38;5011723;28;19976;-75
2022/10/15 05:01:22;;;;;;;;;;;;;;;13.50;81.71;100337.47;5015502;28;19922;-75
2022/10/15 05:03:48;;;;;;;;;;;;;;;13.51;81.62;100339.19;5011639;28;20277;-75
2022/10/15 05:06:15;;;;;;;;;;;;;;;13.52;80.84;100337.44;5010317;28;19976;-74
2022/10/15 05:08:40;;;;;;;;;;;;;;;13.52;80.51;100327.81;4996339;28;19992;-74
2022/10/15 05:11:17;;;;;;;;;;;;;;;13.50;81.03;100329.66;4995820;28;19933;-75
2022/10/15 05:13:42;;;;;;;;;;;;;;;13.53;80.97;100331.28;5010604;28;19930;-75
2022/10/15 05:16:09;;;;;;;;;;;;;;;13.53;80.93;100339.09;5014438;28;19963;-74
2022/10/15 05:18:34;;;;;;;;;;;;;;;13.49;80.97;100337.53;5016430;28;19921;-75
2022/10/15 05:21:03;;;;;;;;;;;;;;;13.50;80.61;100334.84;4976122;28;20398;-75
2022/10/15 05:23:28;;;;;;;;;;;;;;;13.46;81.09;100346.31;5011431;28;20012;-74
2022/10/15 05:25:53;;;;;;;;;;;;;;;13.50;81.16;100347.06;5011144;28;19972;-74
2022/10/15 05:28:19;;;;;;;;;;;;;;;13.50;81.02;100340.09;5010000;28;19921;-74
2022/10/15 05:30:44;;;;;;;;;;;;;;;13.49;80.99;100347.97;5011190;28;20020;-74
2022/10/15 05:33:10;;;;;;;;;;;;;;;13.55;81.14;100345.94;5011011;28;20305;-74
2022/10/15 05:35:36;;;;;;;;;;;;;;;13.53;80.95;100342.56;5011111;28;20283;-74
2022/10/15 05:38:01;;;;;;;;;;;;;;;13.57;80.83;100341.53;5006544;28;19937;-74
2022/10/15 05:40:26;;;;;;;;;;;;;;;13.56;80.86;100345.06;5010031;28;19960;-74
2022/10/15 05:42:52;;;;;;;;;;;;;;;13.56;80.55;100349.41;5002277;28;20463;-74
2022/10/15 05:45:17;;;;;;;;;;;;;;;13.60;80.77;100356.22;5011951;28;19921;-73
2022/10/15 05:47:43;;;;;;;;;;;;;;;13.56;80.77;100358.09;5011685;28;20064;-74
2022/10/15 05:50:08;;;;;;;;;;;;;;;13.58;80.75;100347.63;4995505;28;19925;-73
2022/10/15 05:52:33;;;;;;;;;;;;;;;13.55;80.78;100345.13;5009355;28;19972;-74
2022/10/15 05:54:58;;;;;;;;;;;;;;;13.53;81.14;100355.63;5007741;28;19929;-74
2022/10/15 05:57:24;;;;;;;;;;;;;;;13.44;81.40;100350.75;5010887;28;20044;-74
2022/10/15 05:59:49;;;;;;;;;;;;;;;13.49;81.14;100345.38;5006262;28;19928;-74
2022/10/15 06:02:15;;;;;;;;;;;;;;;13.46;81.06;100355.94;5011289;28;20574;-74
2022/10/15 06:04:40;;;;;;;;;;;;;;;13.47;80.42;100352.41;4994239;28;19921;-74
2022/10/15 06:07:06;;;;;;;;;;;;;;;13.43;80.32;100354.28;5009428;28;20295;-74
2022/10/15 06:09:31;;;;;;;;;;;;;;;13.41;80.05;100357.84;5012932;28;20290;-74
2022/10/15 06:11:56;;;;;;;;;;;;;;;13.36;79.57;100363.25;5009769;28;19944;-74
2022/10/15 06:14:22;;;;;;;;;;;;;;;13.38;79.68;100355.34;5010831;28;19925;-74
2022/10/15 06:16:49;;;;;;;;;;;;;;;13.34;80.02;100353.81;5010600;28;19956;-74
2022/10/15 06:19:15;;;;;;;;;;;;;;;13.38;79.83;100363.19;5009079;28;19956;-74
2022/10/15 06:21:40;;;;;;;;;;;;;;;13.34;80.27;100354.66;5009276;28;19921;-74
2022/10/15 06:24:05;;;;;;;;;;;;;;;13.35;80.24;100350.25;5009193;28;19976;-74
2022/10/15 06:26:30;;;;;;;;;;;;;;;13.32;80.46;100355.59;5008022;28;19922;-74
2022/10/15 06:28:56;;;;;;;;;;;;;;;13.29;80.00;100358.31;5004302;28;19940;-75
2022/10/15 06:31:21;;;;;;;;;;;;;;;13.27;79.99;100357.53;5008854;28;20011;-74
2022/10/15 06:33:46;;;;;;;;;;;;;;;13.21;80.29;100364.69;5008956;28;20396;-74
2022/10/15 06:36:12;;;;;;;;;;;;;;;13.25;80.50;100368.03;5010795;28;19924;-74
2022/10/15 06:38:38;;;;;;;;;;;;;;;13.29;80.52;100372.22;5007558;28;20262;-74
2022/10/15 06:41:04;;;;;;;;;;;;;;;13.34;80.58;100366.84;5008310;28;20298;-74
2022/10/15 06:43:29;;;;;;;;;;;;;;;13.40;80.81;100364.84;5010399;28;19917;-74
2022/10/15 06:45:57;;;;;;;;;;;;;;;13.37;81.14;100380.63;5013863;28;19964;-75
2022/10/15 06:48:22;;;;;;;;;;;;;;;13.44;81.10;100373.38;5010271;28;20093;-74
2022/10/15 06:50:47;;;;;;;;;;;;;;;13.50;81.35;100381.84;5005767;28;20016;-74
2022/10/15 06:53:13;;;;;;;;;;;;;;;13.53;81.50;100383.47;4995635;28;20537;-74
2022/10/15 06:55:38;;;;;;;;;;;;;;;13.58;81.11;100381.56;5005627;28;20474;-75
2022/10/15 06:58:04;;;;;;;;;;;;;;;13.61;81.34;100382.25;5009331;28;19997;-74
2022/10/15 07:00:29;;;;;;;;;;;;;;;13.63;81.42;100383.06;5008797;28;19929;-74
2022/10/15 07:02:54;;;;;;;;;;;;;;;13.64;81.66;100383.91;5006450;28;20429;-74
2022/10/15 07:05:20;;;;;;;;;;;;;;;13.64;81.57;100389.13;5007728;28;20305;-74
2022/10/15 07:07:52;;;;;;;;;;;;;;;13.66;81.51;100392.53;5006328;28;20310;-74
2022/10/15 07:10:17;;;;;;;;;;;;;;;13.69;81.21;100382.00;5006591;28;19936;-74
2022/10/15 07:12:42;;;;;;;;;;;;;;;13.68;81.25;100378.53;5005531;28;19926;-74
2022/10/15 07:15:11;;;;;;;;;;;;;;;13.68;81.19;100382.91;5007399;28;19965;-75
2022/10/15 07:17:38;;;;;;;;;;;;;;;13.66;81.15;100374.25;5004336;28;20075;-74
2022/10/15 07:20:03;;;;;;;;;;;;;;;13.66;81.14;100377.72;5008048;28;19956;-75
2022/10/15 07:22:29;;;;;;;;;;;;;;;13.68;81.35;100381.13;5005897;28;19918;-74
2022/10/15 07:24:54;;;;;;;;;;;;;;;13.70;81.37;100376.69;5008154;28;19929;-74
2022/10/15 07:27:19;;;;;;;;;;;;;;;13.72;81.44;100377.50;5008516;28;19921;-74
2022/10/15 07:29:45;;;;;;;;;;;;;;;13.78;81.64;100384.25;4993485;28;19992;-74
2022/10/15 07:32:10;;;;;;;;;;;;;;;13.77;81.78;100386.00;5008101;28;19928;-73
2022/10/15 07:34:36;;;;;;;;;;;;;;;13.80;81.81;100379.81;5007690;28;19929;-74
2022/10/15 07:37:01;;;;;;;;;;;;;;;13.84;81.72;100385.75;5006860;28;19921;-74
2022/10/15 07:39:26;;;;;;;;;;;;;;;13.86;81.44;100379.56;5006365;28;19932;-74
2022/10/15 07:41:51;;;;;;;;;;;;;;;13.92;81.24;100386.28;5008308;28;19969;-74
2022/10/15 07:44:17;;;;;;;;;;;;;;;14.03;80.92;100378.84;5008024;28;20290;-74
2022/10/15 07:46:42;;;;;;;;;;;;;;;14.04;80.29;100380.56;5009251;28;19921;-75
2022/10/15 07:49:08;;;;;;;;;;;;;;;14.00;80.30;100374.59;5006078;28;20012;-74
2022/10/15 07:51:33;;;;;;;;;;;;;;;13.99;80.19;100374.69;5006296;28;20004;-74
2022/10/15 07:53:59;;;;;;;;;;;;;;;14.05;79.98;100377.03;5007786;28;20410;-75
2022/10/15 07:56:24;;;;;;;;;;;;;;;14.05;80.13;100377.91;4992427;28;19936;-74
2022/10/15 07:58:52;;;;;;;;;;;;;;;14.06;80.65;100374.34;5002667;28;20466;-75
2022/10/15 08:01:18;;;;;;;;;;;;;;;14.08;80.75;100372.56;5006042;28;19928;-74
2022/10/15 08:03:44;;;;;;;;;;;;;;;14.16;80.06;100367.84;5007514;28;19921;-74
2022/10/15 08:06:09;;;;;;;;;;;;;;;14.17;80.59;100369.56;5006662;28;19918;-74
2022/10/15 08:08:35;;;;;;;;;;;;;;;14.15;80.97;100368.75;5009157;28;20291;-74
2022/10/15 08:11:11;;;;;;;;;;;;;;;14.17;80.82;100356.50;5009954;28;20370;-74
2022/10/15 08:13:40;;;;;;;;;;;;;;;14.27;79.05;100359.53;5008732;28;20389;-74
2022/10/15 08:16:05;;;;;;;;;;;;;;;14.20;80.01;100369.44;5012369;28;19921;-74
2022/10/15 08:18:30;;;;;;;;;;;;;;;14.29;80.30;100357.75;5008304;28;19928;-74
2022/10/15 08:20:57;;;;;;;;;;;;;;;14.32;80.18;100353.19;5009060;28;19956;-74
2022/10/15 08:23:22;;;;;;;;;;;;;;;14.39;77.17;100343.34;5008062;28;19964;-74
2022/10/15 08:25:49;;;;;;;;;;;;;;;14.27;80.18;100349.94;5010446;28;19925;-74
2022/10/15 08:28:14;;;;;;;;;;;;;;;14.25;80.85;100343.09;5012540;28;19925;-74
2022/10/15 08:30:39;;;;;;;;;;;;;;;14.33;80.71;100343.59;4994824;28;19921;-74
2022/10/15 08:33:04;;;;;;;;;;;;;;;14.34;80.37;100342.69;5013339;28;20016;-74
2022/10/15 08:35:34;;;;;;;;;;;;;;;14.29;80.95;100352.50;5013325;28;19922;-74
2022/10/15 08:37:59;;;;;;;;;;;;;;;14.29;80.70;100350.72;5010626;28;20379;-74
2022/10/15 08:40:25;;;;;;;;;;;;;;;14.36;80.90;100348.69;5012079;28;19968;-74
2022/10/15 08:42:50;;;;;;;;;;;;;;;14.37;80.42;100345.19;5016514;28;19926;-74
2022/10/15 08:45:16;;;;;;;;;;;;;;;14.35;80.77;100357.47;5010944;28;19925;-75
2022/10/15 08:47:47;;;;;;;;;;;;;;;14.38;80.59;100353.88;5013138;28;19914;-74
2022/10/15 08:50:31;;;;;;;;;;;;;;;14.40;80.15;100354.66;4994759;28;19917;-74
2022/10/15 08:52:57;;;;;;;;;;;;;;;14.47;80.22;100350.88;5011021;28;19952;-74
2022/10/15 08:55:23;;;;;;;;;;;;;;;14.44;80.74;100348.38;5009680;28;19922;-74
2022/10/15 08:58:06;;;;;;;;;;;;;;;14.48;79.40;100339.47;5010714;28;19921;-74
2022/10/15 09:00:39;;;;;;;;;;;;;;;14.43;80.21;100339.69;5010709;28;19927;-74
2022/10/15 09:03:22;;;;;;;;;;;;;;;14.48;80.06;100337.72;5012457;28;19917;-75
2022/10/15 09:05:51;;;;;;;;;;;;;;;14.51;80.87;100336.72;5012353;28;19933;-74
2022/10/15 09:08:26;;;;;;;;;;;;;;;14.53;80.42;100338.34;5011031;28;19968;-74
2022/10/15 09:10:54;;;;;;;;;;;;;;;14.52;81.00;100343.66;5010566;28;19972;-74
2022/10/15 09:13:25;;;;;;;;;;;;;;;14.56;76.09;100340.00;5011521;28;19925;-74
2022/10/15 09:15:52;;;;;;;;;;;;;;;14.58;80.44;100335.56;5009170;28;20317;-74
2022/10/15 09:18:22;;;;;;;;;;;;;;;14.59;79.13;100338.09;5020018;28;20012;-74
2022/10/15 09:20:48;;;;;;;;;;;;;;;14.58;80.88;100335.56;5012915;28;19920;-74
2022/10/15 09:23:16;;;;;;;;;;;;;;;14.58;81.32;100328.56;5010844;28;19925;-74
2022/10/15 09:25:43;;;;;;;;;;;;;;;14.63;80.86;100328.34;5008575;28;20444;-75
2022/10/15 09:28:10;;;;;;;;;;;;;;;14.68;79.23;100327.22;5010286;28;19917;-74
2022/10/15 09:30:35;;;;;;;;;;;;;;;14.71;78.82;100324.47;5009388;28;19921;-75
2022/10/15 09:33:06;;;;;;;;;;;;;;;14.74;80.52;100316.53;5009161;28;20275;-75
2022/10/15 09:35:42;;;;;;;;;;;;;;;14.73;78.80;100317.44;5011430;28;19910;-74
2022/10/15 09:38:16;;;;;;;;;;;;;;;14.78;79.81;100312.88;5009881;28;20294;-74
2022/10/15 09:40:57;;;;;;;;;;;;;;;14.82;79.40;100330.13;5020175;28;19917;-74
2022/10/15 09:43:29;;;;;;;;;;;;;;;14.85;79.50;100329.97;5001895;28;20444;-75
2022/10/15 09:45:54;;;;;;;;;;;;;;;14.85;79.36;100326.50;5005798;28;19932;-74
2022/10/15 09:48:20;;;;;;;;;;;;;;;14.82;74.31;100324.91;5014465;28;19917;-75
2022/10/15 09:50:53;;;;;;;;;;;;;;;14.87;77.75;100314.22;5011640;28;19913;-74
2022/10/15 09:53:18;;;;;;;;;;;;;;;14.88;79.75;100313.31;5010595;28;19932;-75
2022/10/15 09:55:44;;;;;;;;;;;;;;;14.88;78.27;100313.31;5007721;28;19926;-75
2022/10/15 09:58:19;;;;;;;;;;;;;;;14.92;78.12;100314.00;5011074;28;19924;-75
2022/10/15 10:00:56;;;;;;;;;;;;;;;14.95;78.61;100314.69;5008929;28;19922;-74
2022/10/15 10:03:23;;;;;;;;;;;;;;;14.93;76.30;100310.47;5009664;28;19917;-74
2022/10/15 10:05:49;;;;;;;;;;;;;;;14.99;78.49;100311.03;5009424;28;19963;-75
2022/10/15 10:08:14;;;;;;;;;;;;;;;14.99;78.22;100308.41;5008583;28;20290;-75
2022/10/15 10:10:41;;;;;;;;;;;;;;;15.02;79.16;100308.28;4994882;28;20408;-75
2022/10/15 10:13:17;;;;;;;;;;;;;;;15.04;80.14;100297.72;5008522;28;19975;-75
2022/10/15 10:15:42;;;;;;;;;;;;;;;14.99;77.61;100295.34;5007315;28;19929;-75
2022/10/15 10:18:17;;;;;;;;;;;;;;;15.03;79.67;100296.91;5008723;28;19929;-74
2022/10/15 10:20:51;;;;;;;;;;;;;;;15.02;80.09;100297.81;5003538;28;19928;-75
2022/10/15 10:23:20;;;;;;;;;;;;;;;15.04;77.85;100295.09;5006545;28;19968;-75
2022/10/15 10:25:51;;;;;;;;;;;;;;;15.05;79.06;100288.97;5006963;28;20414;-75
2022/10/15 10:28:19;;;;;;;;;;;;;;;15.07;77.91;100294.97;5007112;28;19926;-75
2022/10/15 10:30:52;;;;;;;;;;;;;;;15.16;80.16;100300.63;5007228;28;19930;-75
2022/10/15 10:33:23;;;;;;;;;;;;;;;15.18;79.12;100290.94;5005895;28;19925;-75
2022/10/15 10:35:49;;;;;;;;;;;;;;;15.23;77.94;100290.72;5008140;28;19932;-75
2022/10/15 10:38:22;;;;;;;;;;;;;;;15.26;76.67;100290.56;5002403;28;19983;-75
2022/10/15 10:40:55;;;;;;;;;;;;;;;15.24;73.92;100288.06;5006865;28;20012;-75
2022/10/15 10:43:23;;;;;;;;;;;;;;;15.29;77.03;100293.03;5009894;28;20270;-75
2022/10/15 10:45:52;;;;;;;;;;;;;;;15.36;76.62;100284.81;5009612;28;20306;-75
2022/10/15 10:48:19;;;;;;;;;;;;;;;15.37;76.48;100281.28;5004702;28;20021;-75
2022/10/15 10:50:44;;;;;;;;;;;;;;;15.38;75.60;100287.38;5008094;28;20486;-75
2022/10/15 10:53:20;;;;;;;;;;;;;;;15.40;76.35;100280.28;4989951;28;20016;-75
2022/10/15 10:55:46;;;;;;;;;;;;;;;15.39;76.18;100289.91;5004677;28;20007;-74
2022/10/15 10:58:16;;;;;;;;;;;;;;;15.43;76.74;100285.38;5011440;28;19987;-75
2022/10/15 11:00:43;;;;;;;;;;;;;;;15.41;77.56;100287.22;5007327;28;20494;-74
2022/10/15 11:03:27;;;;;;;;;;;;;;;15.39;77.63;100287.28;5007635;28;20361;-75
2022/10/15 11:05:58;;;;;;;;;;;;;;;15.35;77.49;100287.53;5005848;28;20011;-74
2022/10/15 11:08:35;;;;;;;;;;;;;;;15.41;77.80;100288.06;5009728;28;19921;-75
2022/10/15 11:11:19;;;;;;;;;;;;;;;15.35;73.21;100280.53;5005237;28;19930;-75
2022/10/15 11:13:47;;;;;;;;;;;;;;;15.47;76.22;100278.22;5004770;28;19978;-74
2022/10/15 11:16:19;;;;;;;;;;;;;;;15.47;76.65;100279.06;5007905;28;19926;-74
2022/10/15 11:18:44;;;;;;;;;;;;;;;15.44;75.98;100271.38;5007371;28;19996;-75
2022/10/15 11:21:10;;;;;;;;;;;;;;;15.49;76.19;100268.50;5004249;28;20004;-75
2022/10/15 11:23:41;;;;;;;;;;;;;;;15.49;76.98;100273.75;5011740;28;19917;-75
2022/10/15 11:26:07;;;;;;;;;;;;;;;15.54;76.90;100261.31;5006548;28;20299;-74
2022/10/15 11:28:44;;;;;;;;;;;;;;;15.58;76.62;100268.06;5009291;28;19922;-75
2022/10/15 11:31:17;;;;;;;;;;;;;;;15.57;76.84;100267.22;5008050;28;19928;-74
2022/10/15 11:33:45;;;;;;;;;;;;;;;15.54;76.60;100263.94;5010663;28;20366;-75
2022/10/15 11:36:29;;;;;;;;;;;;;;;15.58;77.17;100261.06;5009840;28;19952;-75
2022/10/15 11:39:02;;;;;;;;;;;;;;;15.55;75.23;100253.38;5010667;28;19913;-75
2022/10/15 11:41:27;;;;;;;;;;;;;;;15.65;77.23;100257.22;4989715;28;20526;-74
2022/10/15 11:43:53;;;;;;;;;;;;;;;15.63;76.88;100251.19;5009318;28;19936;-74
2022/10/15 11:46:30;;;;;;;;;;;;;;;15.57;77.40;100259.34;5009459;28;19921;-75
2022/10/15 11:49:03;;;;;;;;;;;;;;;15.53;77.44;100247.38;5012744;28;19987;-75
2022/10/15 11:51:47;;;;;;;;;;;;;;;15.48;77.36;100252.00;5007127;28;19975;-75
2022/10/15 11:54:32;;;;;;;;;;;;;;;15.51;76.97;100254.41;5014163;28;19979;-75
2022/10/15 11:56:59;;;;;;;;;;;;;;;15.53;77.58;100246.50;4974967;28;19956;-75
2022/10/15 11:59:34;;;;;;;;;;;;;;;15.54;78.46;100241.19;5013477;28;19929;-75
2022/10/15 12:02:02;;;;;;;;;;;;;;;15.56;76.80;100241.97;5011375;28;19928;-75
2022/10/15 12:04:28;;;;;;;;;;;;;;;15.66;77.80;100235.34;5010414;28;20349;-75
2022/10/15 12:06:54;;;;;;;;;;;;;;;15.60;76.72;100234.81;5013824;28;19922;-75
2022/10/15 12:09:29;;;;;;;;;;;;;;;15.69;77.68;100237.81;5005920;28;20006;-74
2022/10/15 12:12:06;;;;;;;;;;;;;;;15.76;77.06;100220.06;5013902;28;19921;-74
2022/10/15 12:14:45;;;;;;;;;;;;;;;15.74;77.44;100234.97;5012629;28;20306;-74
2022/10/15 12:17:20;;;;;;;;;;;;;;;15.78;77.46;100226.03;5020987;28;20286;-75
2022/10/15 12:19:49;;;;;;;;;;;;;;;15.67;77.45;100221.34;5011357;28;19930;-75
2022/10/15 12:22:31;;;;;;;;;;;;;;;15.65;77.20;100224.97;5008832;28;19921;-75
2022/10/15 12:24:56;;;;;;;;;;;;;;;15.68;77.94;100224.81;5010057;28;20509;-75
2022/10/15 12:27:23;;;;;;;;;;;;;;;15.74;78.29;100220.13;5008846;28;20021;-75
2022/10/15 12:30:10;;;;;;;;;;;;;;;15.85;77.11;100222.19;5012068;28;20763;-75
2022/10/15 12:32:44;;;;;;;;;;;;;;;15.77;76.30;100214.75;5006650;28;20276;-75
2022/10/15 12:35:13;;;;;;;;;;;;;;;15.80;77.32;100224.22;5000791;28;20007;-75
2022/10/15 12:37:38;;;;;;;;;;;;;;;15.79;77.47;100225.97;5015247;28;19921;-75
2022/10/15 12:40:05;;;;;;;;;;;;;;;15.79;77.28;100223.38;5010572;28;20300;-75